This is the latest recevied weather packets stored in our database for station/object N0EDB-13. If no packets are shown the sender has not sent any weather packets the latest 10 day(s).
| Time | Temp. | Humidity | Pressure | Rain* | Wind** | Luminosity | Snow |
|---|---|---|---|---|---|---|---|
| 1777903727 | 10° C | 49% | 1492.2 hPa | 0 mm | - | 158 W/m² | - |
| 1777903427 | 10° C | 50% | 1493.5 hPa | 0 mm | - | 156 W/m² | - |
| 1777903127 | 9.44° C | 52% | 1494.9 hPa | 0 mm | - | 154 W/m² | - |
| 1777902826 | 8.89° C | 53% | 1496.2 hPa | 0 mm | - | 153 W/m² | - |
| 1777902526 | 8.89° C | 54% | 1497.3 hPa | 0 mm | - | 153 W/m² | - |
| 1777902226 | 8.33° C | 56% | 1498.3 hPa | 0 mm | - | 145 W/m² | - |
| 1777901925 | 7.78° C | 62% | 1499.2 hPa | 0 mm | - | 141 W/m² | - |
| 1777901625 | 7.78° C | 62% | 1500.3 hPa | 0 mm | - | 126 W/m² | - |
| 1777901324 | 7.22° C | 63% | 1501.1 hPa | 0 mm | - | 109 W/m² | - |
| 1777901024 | 7.22° C | 65% | 1501.7 hPa | 0 mm | - | 100 W/m² | - |
| 1777900724 | 6.67° C | 66% | 1502.4 hPa | 0 mm | - | 95 W/m² | - |
| 1777900423 | 6.67° C | 65% | 1503 hPa | 0 mm | - | 103 W/m² | - |
| 1777900122 | 6.67° C | 67% | 1503.5 hPa | 0 mm | - | 83 W/m² | - |
| 1777899821 | 6.67° C | 68% | 1503.8 hPa | 0 mm | - | 71 W/m² | - |
| 1777899520 | 6.11° C | 67% | 1503.8 hPa | 0 mm | - | 61 W/m² | - |
| 1777899220 | 6.11° C | 66% | 1504 hPa | 0 mm | - | 53 W/m² | - |
| 1777898919 | 6.11° C | 65% | 1504.3 hPa | 0 mm | - | 48 W/m² | - |
| 1777898618 | 6.11° C | 65% | 1504.6 hPa | 0 mm | - | 40 W/m² | - |
| 1777898317 | 6.11° C | 67% | 1504.8 hPa | 0 mm | - | 35 W/m² | - |
| 1777898017 | 6.11° C | 68% | 1504.9 hPa | 0 mm | - | 33 W/m² | - |
| 1777897717 | 6.11° C | 66% | 1504.9 hPa | 0 mm | - | 31 W/m² | - |
| 1777897416 | 6.11° C | 63% | 1504.9 hPa | 0 mm | - | 24 W/m² | - |
| 1777897115 | 5.56° C | 61% | 1504.9 hPa | 0 mm | - | 18 W/m² | - |
| 1777896815 | 5.56° C | 63% | 1505.2 hPa | 0 mm | - | 14 W/m² | - |
| 1777896515 | 5.56° C | 63% | 1505.3 hPa | 0 mm | - | 10 W/m² | - |
* Rain latest hour (hover to see other rain measurements)
** Current wind speed in m/s (hover to see current wind gust speed)